createdAt,value
2018-12-22T00:00:04.305Z,21.73
2018-12-22T00:02:35.439Z,25.13
2018-12-22T00:05:04.894Z,26.17
2018-12-22T00:07:33.971Z,18.17
2018-12-22T00:10:04.062Z,23.10
2018-12-22T00:12:33.117Z,19.20
2018-12-22T00:15:02.203Z,23.57
2018-12-22T00:17:31.269Z,27.03
2018-12-22T00:20:00.336Z,25.07
2018-12-22T00:22:29.403Z,20.83
2018-12-22T00:24:58.450Z,26.03
2018-12-22T00:27:27.534Z,26.43
2018-12-22T00:29:56.580Z,24.77
2018-12-22T00:32:25.588Z,24.73
2018-12-22T00:34:54.625Z,22.87
2018-12-22T00:37:23.693Z,27.93
2018-12-22T00:39:52.864Z,24.90
2018-12-22T00:42:21.986Z,25.20
2018-12-22T00:44:51.085Z,20.60
2018-12-22T00:47:20.240Z,25.33
2018-12-22T00:49:49.727Z,25.53
2018-12-22T00:52:18.809Z,21.03
2018-12-22T00:54:48.174Z,23.67
2018-12-22T00:57:17.206Z,24.00
2018-12-22T00:59:46.229Z,18.57
2018-12-22T01:02:15.297Z,24.67
2018-12-22T01:04:44.345Z,21.20
2018-12-22T01:07:13.377Z,25.60
2018-12-22T01:09:42.416Z,22.43
2018-12-22T01:12:11.558Z,26.57
2018-12-22T01:14:40.706Z,25.50
2018-12-22T01:17:09.730Z,28.23
2018-12-22T01:19:38.774Z,23.50
2018-12-22T01:22:07.831Z,21.73
2018-12-22T01:24:37.154Z,20.10
2018-12-22T01:27:06.297Z,24.13
2018-12-22T01:29:35.349Z,17.67
2018-12-22T01:32:04.421Z,19.50
2018-12-22T01:34:33.478Z,25.23
2018-12-22T01:37:02.523Z,18.27
2018-12-22T01:39:31.593Z,25.50
2018-12-22T01:42:00.626Z,17.73
2018-12-22T01:44:29.671Z,18.70
2018-12-22T01:46:58.750Z,25.83
2018-12-22T01:49:27.830Z,19.93
2018-12-22T01:51:56.877Z,19.73
2018-12-22T01:54:25.915Z,25.83
2018-12-22T01:56:55.065Z,20.00
2018-12-22T01:59:24.101Z,20.77
2018-12-22T02:01:53.653Z,21.00
2018-12-22T02:04:22.732Z,20.83
2018-12-22T02:06:51.800Z,21.40
2018-12-22T02:09:21.277Z,20.00
2018-12-22T02:11:50.333Z,23.90
2018-12-22T02:14:19.385Z,22.27
2018-12-22T02:16:48.482Z,19.13
2018-12-22T02:19:17.686Z,23.00
2018-12-22T02:21:46.730Z,28.67
2018-12-22T02:24:15.762Z,22.97
2018-12-22T02:26:44.929Z,24.87
2018-12-22T02:29:13.969Z,22.33
2018-12-22T02:31:43.054Z,24.63
2018-12-22T02:34:12.096Z,26.13
2018-12-22T02:36:41.149Z,24.73
2018-12-22T02:39:10.193Z,23.40
2018-12-22T02:41:39.244Z,25.90
2018-12-22T02:44:08.423Z,21.93
2018-12-22T02:46:37.507Z,20.97
2018-12-22T02:49:06.544Z,18.53
2018-12-22T02:51:35.599Z,20.50
2018-12-22T02:54:04.665Z,21.30
2018-12-22T02:56:33.706Z,19.30
2018-12-22T02:59:06.375Z,22.33
2018-12-22T03:01:33.848Z,17.93
2018-12-22T03:04:02.933Z,20.37
2018-12-22T03:06:31.996Z,17.97
2018-12-22T03:09:01.093Z,18.00
2018-12-22T03:11:30.236Z,21.20
2018-12-22T03:13:59.311Z,21.33
2018-12-22T03:16:28.345Z,23.33
2018-12-22T03:18:57.435Z,17.40
2018-12-22T03:21:26.496Z,18.30
2018-12-22T03:23:55.554Z,20.53
2018-12-22T03:26:24.577Z,22.33
2018-12-22T03:28:53.642Z,21.63
2018-12-22T03:31:22.665Z,16.90
2018-12-22T03:33:51.721Z,22.03
2018-12-22T03:36:20.746Z,16.33
2018-12-22T03:38:49.769Z,15.87
2018-12-22T03:41:18.794Z,16.10
2018-12-22T03:43:47.959Z,14.67
2018-12-22T03:46:17.032Z,18.27
2018-12-22T03:48:46.082Z,13.07
2018-12-22T03:51:15.113Z,16.10
2018-12-22T03:53:44.188Z,16.77
2018-12-22T03:56:13.226Z,12.73
2018-12-22T03:58:42.297Z,10.20
2018-12-22T04:01:11.330Z,12.13
2018-12-22T04:03:40.345Z,9.60
2018-12-22T04:06:09.387Z,10.47
2018-12-22T04:08:38.472Z,7.60
2018-12-22T04:11:07.530Z,8.07
2018-12-22T04:13:36.544Z,5.90
2018-12-22T04:16:05.641Z,7.93
2018-12-22T04:18:34.643Z,6.77
2018-12-22T04:21:03.704Z,7.00
2018-12-22T04:23:32.751Z,3.87
2018-12-22T04:26:01.853Z,5.40
2018-12-22T04:28:30.855Z,7.53
2018-12-22T04:30:59.917Z,3.33
2018-12-22T04:33:28.972Z,5.97
2018-12-22T04:35:58.097Z,4.63
2018-12-22T04:38:27.128Z,5.17
2018-12-22T04:40:56.146Z,3.50
2018-12-22T04:43:25.180Z,3.80
2018-12-22T04:45:54.372Z,4.97
2018-12-22T04:48:23.448Z,6.30
2018-12-22T04:50:52.470Z,4.83
2018-12-22T04:53:21.492Z,5.70
2018-12-22T04:55:50.609Z,7.03
2018-12-22T04:58:19.628Z,5.47
2018-12-22T05:00:48.681Z,7.87
2018-12-22T05:03:17.715Z,4.80
2018-12-22T05:05:46.751Z,6.10
2018-12-22T05:08:15.800Z,9.00
2018-12-22T05:10:44.837Z,6.20
2018-12-22T05:13:13.885Z,6.57
2018-12-22T05:15:42.885Z,3.90
2018-12-22T05:18:12.049Z,6.37
2018-12-22T05:20:41.091Z,8.37
2018-12-22T05:23:10.407Z,9.47
2018-12-22T05:25:39.412Z,7.47
2018-12-22T05:28:08.526Z,8.10
2018-12-22T05:30:37.525Z,6.23
2018-12-22T05:33:06.592Z,9.27
2018-12-22T05:35:35.615Z,6.17
2018-12-22T05:38:04.682Z,6.27
2018-12-22T05:40:33.713Z,6.67
2018-12-22T05:43:03.848Z,8.50
2018-12-22T05:45:33.214Z,6.90
2018-12-22T05:48:02.239Z,7.63
2018-12-22T05:50:31.287Z,4.90
2018-12-22T05:53:00.316Z,8.67
2018-12-22T05:55:29.342Z,4.83
2018-12-22T05:57:58.469Z,9.13
2018-12-22T06:00:27.521Z,8.70
2018-12-22T06:02:56.574Z,6.63
2018-12-22T06:05:25.613Z,11.27
2018-12-22T06:07:54.633Z,8.77
2018-12-22T06:10:23.653Z,6.17
2018-12-22T06:12:53.875Z,7.40
2018-12-22T06:15:22.918Z,7.53
2018-12-22T06:17:53.056Z,8.73
2018-12-22T06:20:22.099Z,6.43
2018-12-22T06:22:51.100Z,12.33
2018-12-22T06:25:20.174Z,10.93
2018-12-22T06:27:49.271Z,8.40
2018-12-22T06:30:18.419Z,9.00
2018-12-22T06:32:47.450Z,7.80
2018-12-22T06:35:16.668Z,11.30
2018-12-22T06:37:45.883Z,11.67
2018-12-22T06:40:17.171Z,7.70
2018-12-22T06:42:46.871Z,6.70
2018-12-22T06:45:16.274Z,7.33
2018-12-22T06:47:45.321Z,6.77
2018-12-22T06:50:14.463Z,7.07
2018-12-22T06:52:43.777Z,7.23
2018-12-22T06:55:13.726Z,8.87
2018-12-22T06:57:42.825Z,7.10
2018-12-22T07:00:17.553Z,5.50
2018-12-22T07:02:43.048Z,8.50
2018-12-22T07:05:12.064Z,5.70
2018-12-22T07:07:41.122Z,6.27
2018-12-22T07:10:10.153Z,5.60
2018-12-22T07:12:39.309Z,9.33
2018-12-22T07:15:08.345Z,5.97
2018-12-22T07:17:37.433Z,4.57
2018-12-22T07:20:06.746Z,7.17
2018-12-22T07:22:35.785Z,5.17
2018-12-22T07:25:04.930Z,4.13
2018-12-22T07:27:34.008Z,2.73
2018-12-22T07:30:03.393Z,2.47
2018-12-22T07:32:32.414Z,6.77
2018-12-22T07:35:01.503Z,3.70
2018-12-22T07:37:30.571Z,2.47
2018-12-22T07:39:59.621Z,6.47
2018-12-22T07:42:28.673Z,6.50
2018-12-22T07:44:57.729Z,5.07
2018-12-22T07:47:28.378Z,5.53
2018-12-22T07:49:57.412Z,11.77
2018-12-22T07:52:26.498Z,7.10
2018-12-22T07:54:55.558Z,10.20
2018-12-22T07:57:24.834Z,12.80
2018-12-22T07:59:53.907Z,9.87
2018-12-22T08:02:22.995Z,9.60
2018-12-22T08:04:52.216Z,10.63
2018-12-22T08:07:21.396Z,8.33
2018-12-22T08:09:50.449Z,6.33
2018-12-22T08:12:19.502Z,7.30
2018-12-22T08:14:48.555Z,9.20
2018-12-22T08:17:17.590Z,4.33
2018-12-22T08:19:46.761Z,5.80
2018-12-22T08:22:15.786Z,6.47
2018-12-22T08:24:44.862Z,4.17
2018-12-22T08:27:13.921Z,5.63
2018-12-22T08:29:43.015Z,4.73
2018-12-22T08:32:12.034Z,6.87
2018-12-22T08:34:41.104Z,3.70
2018-12-22T08:37:10.190Z,6.47
2018-12-22T08:39:39.245Z,3.57
2018-12-22T08:42:08.374Z,4.03
2018-12-22T08:44:37.424Z,4.93
2018-12-22T08:47:06.633Z,9.17
2018-12-22T08:49:35.704Z,4.37
2018-12-22T08:52:04.973Z,7.03
2018-12-22T08:54:34.037Z,2.80
2018-12-22T08:57:03.129Z,6.60
2018-12-22T08:59:32.194Z,4.30
2018-12-22T09:02:01.339Z,5.13
2018-12-22T09:04:31.170Z,8.40
2018-12-22T09:07:00.423Z,7.53
2018-12-22T09:09:29.746Z,4.20
2018-12-22T09:11:58.853Z,7.40
2018-12-22T09:14:27.967Z,8.83
2018-12-22T09:16:57.061Z,10.00
2018-12-22T09:19:26.320Z,6.97
2018-12-22T09:21:55.581Z,8.80
2018-12-22T09:24:25.016Z,10.80
2018-12-22T09:26:54.198Z,7.93
2018-12-22T09:29:23.289Z,11.53
2018-12-22T09:31:53.271Z,9.03
2018-12-22T09:34:22.335Z,8.03
2018-12-22T09:36:51.432Z,8.13
2018-12-22T09:39:20.474Z,13.00
2018-12-22T09:41:49.513Z,13.10
2018-12-22T09:44:18.617Z,11.57
2018-12-22T09:46:47.685Z,10.23
2018-12-22T09:49:16.761Z,8.60
2018-12-22T09:51:45.911Z,14.73
2018-12-22T09:54:14.980Z,13.73
2018-12-22T09:56:44.033Z,11.43
2018-12-22T09:59:13.173Z,14.07
2018-12-22T10:01:42.250Z,12.60
2018-12-22T10:04:11.419Z,8.23
2018-12-22T10:06:41.427Z,10.50
2018-12-22T10:09:10.509Z,11.63
2018-12-22T10:11:40.789Z,12.93
2018-12-22T10:14:09.841Z,12.10
2018-12-22T10:16:39.446Z,9.17
2018-12-22T10:19:08.493Z,9.23
2018-12-22T10:21:37.585Z,6.83
2018-12-22T10:24:06.680Z,10.13
2018-12-22T10:26:35.745Z,12.37
2018-12-22T10:29:04.859Z,11.67
2018-12-22T10:31:33.969Z,11.53
2018-12-22T10:34:03.071Z,10.57
2018-12-22T10:36:32.110Z,6.63
2018-12-22T10:39:01.224Z,13.43
2018-12-22T10:41:30.853Z,8.17
2018-12-22T10:44:00.218Z,9.00
2018-12-22T10:46:29.457Z,5.50
2018-12-22T10:48:58.825Z,8.73
2018-12-22T10:51:28.014Z,9.43
2018-12-22T10:53:57.165Z,12.60
2018-12-22T10:56:26.301Z,8.63
2018-12-22T10:58:55.732Z,8.40
2018-12-22T11:01:26.715Z,13.63
2018-12-22T11:03:56.054Z,10.43
2018-12-22T11:06:25.204Z,6.93
2018-12-22T11:08:54.348Z,13.73
2018-12-22T11:11:23.587Z,12.17
2018-12-22T11:13:52.867Z,16.20
2018-12-22T11:16:22.022Z,14.23
2018-12-22T11:18:51.258Z,12.47
2018-12-22T11:21:20.518Z,11.10
2018-12-22T11:23:49.679Z,10.00
2018-12-22T11:26:19.005Z,11.13
2018-12-22T11:28:48.291Z,16.33
2018-12-22T11:31:17.390Z,14.80
2018-12-22T11:33:47.726Z,14.30
2018-12-22T11:36:16.877Z,13.17
2018-12-22T11:38:46.041Z,10.07
2018-12-22T11:41:15.121Z,8.53
2018-12-22T11:43:44.306Z,9.93
2018-12-22T11:46:14.053Z,12.47
2018-12-22T11:48:57.737Z,8.80
2018-12-22T11:51:27.024Z,11.37
2018-12-22T11:53:56.113Z,7.37
2018-12-22T11:56:25.266Z,7.27
2018-12-22T11:58:54.718Z,10.77
2018-12-22T12:01:23.802Z,8.67
2018-12-22T12:03:53.296Z,7.43
2018-12-22T12:06:22.729Z,8.77
2018-12-22T12:08:52.054Z,8.07
2018-12-22T12:11:22.414Z,10.77
2018-12-22T12:13:52.822Z,10.13
2018-12-22T12:16:26.787Z,11.43
2018-12-22T12:19:15.501Z,6.03
2018-12-22T12:21:44.685Z,9.47
2018-12-22T12:24:14.738Z,9.10
2018-12-22T12:26:44.084Z,6.87
2018-12-22T12:29:13.196Z,11.77
2018-12-22T12:31:42.404Z,10.90
2018-12-22T12:34:11.806Z,9.57
2018-12-22T12:36:40.913Z,10.53
2018-12-22T12:39:17.107Z,9.47
2018-12-22T12:41:46.338Z,8.07
2018-12-22T12:50:18.189Z,9.63
2018-12-22T12:52:47.495Z,8.07
2018-12-22T12:55:16.578Z,9.33
2018-12-22T12:57:45.670Z,9.43
2018-12-22T13:00:16.821Z,10.27
2018-12-22T13:02:46.071Z,7.80
2018-12-22T13:05:15.249Z,9.10
2018-12-22T13:07:44.354Z,7.87
2018-12-22T13:10:13.593Z,7.37
2018-12-22T13:12:51.687Z,8.20
2018-12-22T13:15:20.789Z,7.27
2018-12-22T13:17:49.857Z,9.67
2018-12-22T13:20:19.303Z,8.57
2018-12-22T13:22:48.406Z,10.37
2018-12-22T13:25:18.590Z,9.43
2018-12-22T13:27:50.149Z,10.23
2018-12-22T13:30:19.267Z,7.97
2018-12-22T13:32:48.463Z,10.40
2018-12-22T13:35:17.498Z,11.30
2018-12-22T13:37:46.605Z,10.03
2018-12-22T13:40:15.723Z,9.97
2018-12-22T13:42:44.901Z,8.90
2018-12-22T13:45:13.979Z,11.23
2018-12-22T13:47:43.228Z,7.83
2018-12-22T13:50:12.874Z,9.10
2018-12-22T13:52:43.153Z,9.13
2018-12-22T13:55:12.199Z,8.17
2018-12-22T13:57:41.365Z,8.97
2018-12-22T14:00:12.898Z,9.93
2018-12-22T14:02:42.440Z,11.27
2018-12-22T14:05:14.636Z,13.73
2018-12-22T14:07:43.701Z,8.47
2018-12-22T14:10:12.775Z,8.47
2018-12-22T14:12:41.938Z,11.20
2018-12-22T14:15:14.609Z,9.10
2018-12-22T14:18:06.905Z,11.50
2018-12-22T14:20:36.315Z,11.87
2018-12-22T14:23:06.245Z,11.80
2018-12-22T14:25:35.266Z,8.80
2018-12-22T14:28:04.668Z,11.97
2018-12-22T14:30:36.883Z,13.40
2018-12-22T14:33:06.573Z,9.20
2018-12-22T14:35:40.437Z,11.77
2018-12-22T14:38:09.534Z,11.33
2018-12-22T14:40:38.645Z,10.93
2018-12-22T14:43:08.183Z,14.20
2018-12-22T14:45:37.345Z,13.90
2018-12-22T14:48:06.482Z,11.47
2018-12-22T14:50:35.904Z,14.17
2018-12-22T14:53:04.940Z,7.77
2018-12-22T14:55:34.114Z,8.43
2018-12-22T14:58:10.893Z,16.67
2018-12-22T15:00:40.149Z,16.77
2018-12-22T15:03:09.997Z,11.13
2018-12-22T15:05:39.125Z,13.83
2018-12-22T15:08:08.355Z,10.70
2018-12-22T15:10:38.240Z,11.47
2018-12-22T15:13:07.430Z,9.23
2018-12-22T15:15:36.668Z,12.07
2018-12-22T15:18:05.765Z,16.07
2018-12-22T15:20:34.897Z,11.40
2018-12-22T15:23:06.670Z,12.93
2018-12-22T15:25:35.749Z,12.93
2018-12-22T15:28:04.793Z,13.57
2018-12-22T15:30:33.979Z,13.97
2018-12-22T15:33:03.686Z,17.30
2018-12-22T15:35:32.898Z,12.17
2018-12-22T15:38:02.089Z,10.87
2018-12-22T15:40:31.296Z,14.93
2018-12-22T15:43:00.361Z,13.13
2018-12-22T15:45:29.454Z,16.03
2018-12-22T15:47:58.747Z,16.83
2018-12-22T15:50:29.996Z,14.47
2018-12-22T15:53:00.217Z,18.87
2018-12-22T15:55:30.469Z,15.43
2018-12-22T15:57:59.662Z,17.23
2018-12-22T16:00:28.755Z,12.90
2018-12-22T16:02:57.816Z,18.50
2018-12-22T16:05:26.993Z,18.40
2018-12-22T16:07:56.150Z,15.30
2018-12-22T16:10:25.187Z,12.57
2018-12-22T16:12:54.287Z,14.03
2018-12-22T16:15:23.413Z,13.33
2018-12-22T16:17:52.505Z,19.23
2018-12-22T16:20:21.609Z,18.50
2018-12-22T16:22:55.786Z,18.07
2018-12-22T16:25:24.993Z,13.80
2018-12-22T16:27:57.766Z,18.30
2018-12-22T16:30:29.674Z,20.73
2018-12-22T16:33:01.741Z,14.87
2018-12-22T16:35:29.846Z,15.20
2018-12-22T16:37:58.915Z,16.57
2018-12-22T16:40:27.992Z,17.07
2018-12-22T16:42:57.071Z,17.20
2018-12-22T16:45:26.256Z,21.57
2018-12-22T16:47:55.372Z,14.93
2018-12-22T16:50:24.464Z,19.27
2018-12-22T16:52:53.513Z,18.60
2018-12-22T16:55:23.034Z,15.93
2018-12-22T16:58:02.143Z,17.93
2018-12-22T17:00:33.740Z,16.53
2018-12-22T17:03:10.688Z,14.13
2018-12-22T17:05:37.518Z,15.50
2018-12-22T17:08:06.626Z,16.60
2018-12-22T17:10:39.342Z,14.73
2018-12-22T17:13:09.288Z,16.20
2018-12-22T17:15:41.052Z,20.87
2018-12-22T17:18:10.169Z,19.77
2018-12-22T17:20:39.401Z,22.00
2018-12-22T17:24:31.545Z,15.40
2018-12-22T17:27:00.642Z,13.73
2018-12-22T17:29:29.686Z,19.77
2018-12-22T17:31:58.772Z,15.37
2018-12-22T17:34:28.296Z,17.47
2018-12-22T17:36:57.384Z,21.03
2018-12-22T17:39:26.673Z,21.27
2018-12-22T17:41:55.740Z,15.57
2018-12-22T17:44:24.836Z,16.70
2018-12-22T17:46:55.138Z,18.37
2018-12-22T17:49:24.238Z,14.77
2018-12-22T17:51:53.420Z,15.93
2018-12-22T17:54:22.460Z,17.83
2018-12-22T17:56:52.646Z,17.73
2018-12-22T17:59:21.690Z,15.77
2018-12-22T18:01:50.760Z,16.67
2018-12-22T18:04:19.857Z,16.03
2018-12-22T18:06:48.946Z,14.03
2018-12-22T18:09:18.026Z,13.53
2018-12-22T18:11:47.225Z,19.77
2018-12-22T18:14:16.357Z,14.87
2018-12-22T18:16:45.375Z,14.47
2018-12-22T18:19:14.430Z,13.93
2018-12-22T18:21:43.471Z,11.87
2018-12-22T18:24:12.629Z,18.43
2018-12-22T18:26:41.742Z,15.33
2018-12-22T18:29:10.852Z,12.43
2018-12-22T18:31:40.011Z,17.77
2018-12-22T18:34:09.145Z,17.97
2018-12-22T18:36:39.482Z,13.77
2018-12-22T18:39:08.556Z,17.97
2018-12-22T18:41:38.826Z,13.67
2018-12-22T18:44:07.906Z,16.10
2018-12-22T18:46:37.066Z,17.20
2018-12-22T18:49:06.161Z,21.20
2018-12-22T18:51:35.488Z,14.70
2018-12-22T18:54:04.557Z,13.03
2018-12-22T18:56:33.634Z,19.97
2018-12-22T18:59:02.817Z,15.27
2018-12-22T19:01:31.898Z,16.37
2018-12-22T19:04:01.008Z,18.43
2018-12-22T19:06:30.090Z,14.13
2018-12-22T19:09:01.467Z,18.40
2018-12-22T19:11:32.206Z,18.67
2018-12-22T19:14:01.320Z,16.93
2018-12-22T19:16:30.419Z,21.13
2018-12-22T19:18:59.733Z,18.03
2018-12-22T19:21:28.872Z,14.43
2018-12-22T19:23:57.963Z,21.80
2018-12-22T19:26:27.042Z,16.70
2018-12-22T19:28:56.170Z,21.77
2018-12-22T19:31:25.281Z,19.20
2018-12-22T19:33:54.384Z,19.83
2018-12-22T19:36:23.521Z,17.70
2018-12-22T19:38:52.605Z,18.97
2018-12-22T19:41:22.709Z,18.40
2018-12-22T19:43:51.937Z,14.43
2018-12-22T19:46:21.177Z,18.80
2018-12-22T19:48:50.324Z,20.77
2018-12-22T19:51:19.578Z,24.30
2018-12-22T19:53:48.661Z,16.37
2018-12-22T19:56:17.758Z,15.87
2018-12-22T19:58:46.838Z,21.27
2018-12-22T20:01:15.960Z,20.57
2018-12-22T20:03:45.166Z,19.60
2018-12-22T20:06:14.249Z,15.87
2018-12-22T20:08:43.483Z,15.57
2018-12-22T20:11:16.002Z,17.70
2018-12-22T20:13:45.557Z,13.97
2018-12-22T20:16:14.648Z,13.60
2018-12-22T20:18:43.777Z,17.10
2018-12-22T20:21:12.829Z,17.93
2018-12-22T20:23:41.982Z,13.10
2018-12-22T20:26:11.121Z,19.77
2018-12-22T20:28:40.330Z,15.67
2018-12-22T20:31:09.445Z,20.63
2018-12-22T20:33:38.497Z,17.63
2018-12-22T20:36:07.655Z,19.37
2018-12-22T20:38:36.827Z,16.23
2018-12-22T20:41:05.947Z,24.37
2018-12-22T20:43:35.037Z,21.73
2018-12-22T20:46:04.223Z,19.40
2018-12-22T20:48:33.334Z,21.93
2018-12-22T20:51:02.443Z,16.87
2018-12-22T20:53:31.627Z,18.40
2018-12-22T20:56:00.758Z,18.73
2018-12-22T20:58:29.901Z,14.83
2018-12-22T21:00:59.204Z,18.73
2018-12-22T21:03:37.562Z,16.83
2018-12-22T21:06:12.373Z,15.53
2018-12-22T21:08:41.458Z,19.33
2018-12-22T21:11:10.557Z,15.60
2018-12-22T21:13:39.905Z,15.13
2018-12-22T21:16:09.086Z,14.50
2018-12-22T21:18:38.297Z,13.60
2018-12-22T21:21:07.426Z,21.00
2018-12-22T21:23:36.530Z,14.80
2018-12-22T21:26:05.687Z,19.30
2018-12-22T21:28:34.765Z,16.93
2018-12-22T21:31:03.962Z,15.87
2018-12-22T21:33:33.036Z,16.73
2018-12-22T21:36:02.147Z,17.83
2018-12-22T21:38:32.317Z,16.83
2018-12-22T21:41:02.188Z,16.37
2018-12-22T21:43:31.340Z,14.43
2018-12-22T21:46:00.467Z,19.00
2018-12-22T21:48:29.582Z,16.77
2018-12-22T21:50:59.131Z,18.90
2018-12-22T21:53:29.450Z,17.80
2018-12-22T21:55:58.638Z,20.63
2018-12-22T21:58:27.797Z,21.00
2018-12-22T22:00:57.060Z,21.10
2018-12-22T22:03:26.169Z,21.67
2018-12-22T22:05:55.398Z,17.40
2018-12-22T22:08:24.713Z,17.07
2018-12-22T22:10:53.843Z,21.53
2018-12-22T22:13:22.933Z,17.17
2018-12-22T22:15:53.048Z,17.70
2018-12-22T22:18:22.421Z,15.27
2018-12-22T22:20:53.017Z,19.60
2018-12-22T22:23:22.134Z,17.17
2018-12-22T22:25:51.284Z,16.37
2018-12-22T22:28:20.674Z,15.13
2018-12-22T22:30:49.756Z,19.20
2018-12-22T22:33:18.833Z,16.87
2018-12-22T22:35:47.906Z,16.97
2018-12-22T22:38:17.022Z,13.97
2018-12-22T22:40:46.098Z,18.37
2018-12-22T22:43:15.261Z,16.37
2018-12-22T22:45:44.439Z,13.73
2018-12-22T23:06:12.621Z,14.87
2018-12-22T23:08:41.680Z,14.43
2018-12-22T23:11:10.914Z,12.80
2018-12-22T23:13:39.969Z,13.17
2018-12-22T23:16:09.162Z,12.80
2018-12-22T23:21:34.716Z,18.17
2018-12-22T23:24:04.098Z,13.53
2018-12-22T23:26:33.186Z,19.20
2018-12-22T23:29:03.080Z,16.57
2018-12-22T23:31:32.247Z,22.47
2018-12-22T23:34:10.031Z,16.23
2018-12-22T23:36:39.070Z,13.17
2018-12-22T23:39:11.135Z,16.37
2018-12-22T23:41:41.457Z,18.37
2018-12-22T23:44:10.702Z,15.20
2018-12-22T23:46:39.886Z,16.03
2018-12-22T23:49:09.049Z,14.53
2018-12-22T23:51:38.343Z,17.30
2018-12-22T23:54:07.449Z,16.33
2018-12-22T23:56:36.525Z,14.00
2018-12-22T23:59:05.582Z,18.90
